sensor_id;sensor_type;location;lat;lon;timestamp;P1;durP1;ratioP1;P2;durP2;ratioP2
78931;SDS011;68331;53.362;55.932;2023-07-31T00:00:49;5.10;;;4.25;;
78931;SDS011;68331;53.362;55.932;2023-07-31T00:03:15;4.97;;;3.97;;
78931;SDS011;68331;53.362;55.932;2023-07-31T00:05:42;6.57;;;4.25;;
78931;SDS011;68331;53.362;55.932;2023-07-31T00:08:08;4.95;;;4.30;;
78931;SDS011;68331;53.362;55.932;2023-07-31T00:10:34;7.40;;;4.93;;
78931;SDS011;68331;53.362;55.932;2023-07-31T00:13:00;11.05;;;4.53;;
78931;SDS011;68331;53.362;55.932;2023-07-31T00:15:27;8.18;;;5.53;;
78931;SDS011;68331;53.362;55.932;2023-07-31T00:17:53;5.47;;;4.88;;
78931;SDS011;68331;53.362;55.932;2023-07-31T00:20:19;7.47;;;4.55;;
78931;SDS011;68331;53.362;55.932;2023-07-31T00:22:45;8.07;;;4.68;;
78931;SDS011;68331;53.362;55.932;2023-07-31T00:25:11;5.78;;;4.22;;
78931;SDS011;68331;53.362;55.932;2023-07-31T00:27:37;6.07;;;4.38;;
78931;SDS011;68331;53.362;55.932;2023-07-31T00:30:04;6.32;;;4.97;;
78931;SDS011;68331;53.362;55.932;2023-07-31T00:32:33;5.40;;;4.30;;
78931;SDS011;68331;53.362;55.932;2023-07-31T00:34:59;6.45;;;4.72;;
78931;SDS011;68331;53.362;55.932;2023-07-31T00:37:25;7.38;;;5.40;;
78931;SDS011;68331;53.362;55.932;2023-07-31T00:39:51;6.80;;;4.65;;
78931;SDS011;68331;53.362;55.932;2023-07-31T00:42:17;5.00;;;4.55;;
78931;SDS011;68331;53.362;55.932;2023-07-31T00:44:43;6.32;;;4.15;;
78931;SDS011;68331;53.362;55.932;2023-07-31T00:47:09;6.45;;;4.18;;
78931;SDS011;68331;53.362;55.932;2023-07-31T00:49:35;6.60;;;4.13;;
78931;SDS011;68331;53.362;55.932;2023-07-31T00:52:01;6.45;;;4.13;;
78931;SDS011;68331;53.362;55.932;2023-07-31T00:54:28;8.63;;;4.68;;
78931;SDS011;68331;53.362;55.932;2023-07-31T00:56:54;8.43;;;4.55;;
78931;SDS011;68331;53.362;55.932;2023-07-31T01:04:13;6.57;;;4.60;;
78931;SDS011;68331;53.362;55.932;2023-07-31T01:06:52;5.90;;;4.03;;
78931;SDS011;68331;53.362;55.932;2023-07-31T01:09:37;7.32;;;4.85;;
78931;SDS011;68331;53.362;55.932;2023-07-31T01:12:12;10.60;;;4.57;;
78931;SDS011;68331;53.362;55.932;2023-07-31T01:14:41;7.00;;;4.80;;
78931;SDS011;68331;53.362;55.932;2023-07-31T01:17:17;4.53;;;4.07;;
78931;SDS011;68331;53.362;55.932;2023-07-31T01:19:43;7.45;;;4.80;;
78931;SDS011;68331;53.362;55.932;2023-07-31T01:22:23;6.32;;;4.40;;
78931;SDS011;68331;53.362;55.932;2023-07-31T01:28:10;7.60;;;4.38;;
78931;SDS011;68331;53.362;55.932;2023-07-31T01:30:43;8.85;;;4.68;;
78931;SDS011;68331;53.362;55.932;2023-07-31T01:33:15;8.68;;;4.00;;
78931;SDS011;68331;53.362;55.932;2023-07-31T01:35:43;6.53;;;4.63;;
78931;SDS011;68331;53.362;55.932;2023-07-31T01:38:10;6.55;;;4.50;;
78931;SDS011;68331;53.362;55.932;2023-07-31T01:40:40;5.03;;;4.13;;
78931;SDS011;68331;53.362;55.932;2023-07-31T01:43:09;4.93;;;4.43;;
78931;SDS011;68331;53.362;55.932;2023-07-31T01:45:36;7.05;;;4.25;;
78931;SDS011;68331;53.362;55.932;2023-07-31T01:48:02;5.88;;;4.70;;
78931;SDS011;68331;53.362;55.932;2023-07-31T01:50:28;5.57;;;3.90;;
78931;SDS011;68331;53.362;55.932;2023-07-31T01:52:54;5.00;;;4.40;;
78931;SDS011;68331;53.362;55.932;2023-07-31T01:55:20;8.85;;;4.63;;
78931;SDS011;68331;53.362;55.932;2023-07-31T01:57:46;7.20;;;4.22;;
78931;SDS011;68331;53.362;55.932;2023-07-31T02:00:15;6.45;;;4.10;;
78931;SDS011;68331;53.362;55.932;2023-07-31T02:02:40;6.00;;;4.18;;
78931;SDS011;68331;53.362;55.932;2023-07-31T02:05:07;6.90;;;4.63;;
78931;SDS011;68331;53.362;55.932;2023-07-31T02:07:33;11.30;;;4.72;;
78931;SDS011;68331;53.362;55.932;2023-07-31T02:10:00;5.03;;;4.45;;
78931;SDS011;68331;53.362;55.932;2023-07-31T02:12:26;7.82;;;4.43;;
78931;SDS011;68331;53.362;55.932;2023-07-31T02:14:52;5.47;;;4.07;;
78931;SDS011;68331;53.362;55.932;2023-07-31T02:17:18;6.47;;;4.10;;
78931;SDS011;68331;53.362;55.932;2023-07-31T02:20:05;8.73;;;4.38;;
78931;SDS011;68331;53.362;55.932;2023-07-31T02:22:33;5.70;;;4.82;;
78931;SDS011;68331;53.362;55.932;2023-07-31T02:24:59;11.75;;;4.80;;
78931;SDS011;68331;53.362;55.932;2023-07-31T02:27:25;8.40;;;4.60;;
78931;SDS011;68331;53.362;55.932;2023-07-31T02:29:53;5.57;;;4.38;;
78931;SDS011;68331;53.362;55.932;2023-07-31T02:32:21;5.07;;;4.40;;
78931;SDS011;68331;53.362;55.932;2023-07-31T02:34:47;9.32;;;4.43;;
78931;SDS011;68331;53.362;55.932;2023-07-31T02:37:14;7.15;;;4.57;;
78931;SDS011;68331;53.362;55.932;2023-07-31T02:39:40;8.55;;;4.53;;
78931;SDS011;68331;53.362;55.932;2023-07-31T02:42:07;6.40;;;3.50;;
78931;SDS011;68331;53.362;55.932;2023-07-31T02:44:32;6.30;;;4.03;;
78931;SDS011;68331;53.362;55.932;2023-07-31T02:46:59;12.25;;;4.70;;
78931;SDS011;68331;53.362;55.932;2023-07-31T02:49:25;9.07;;;4.25;;
78931;SDS011;68331;53.362;55.932;2023-07-31T02:51:51;4.68;;;3.60;;
78931;SDS011;68331;53.362;55.932;2023-07-31T02:54:18;7.50;;;4.57;;
78931;SDS011;68331;53.362;55.932;2023-07-31T02:56:46;11.38;;;4.20;;
78931;SDS011;68331;53.362;55.932;2023-07-31T02:59:12;6.07;;;4.28;;
78931;SDS011;68331;53.362;55.932;2023-07-31T03:01:37;6.70;;;3.92;;
78931;SDS011;68331;53.362;55.932;2023-07-31T03:04:04;6.82;;;4.28;;
78931;SDS011;68331;53.362;55.932;2023-07-31T03:06:30;7.35;;;4.30;;
78931;SDS011;68331;53.362;55.932;2023-07-31T03:08:56;5.43;;;3.97;;
78931;SDS011;68331;53.362;55.932;2023-07-31T03:11:22;5.13;;;4.63;;
78931;SDS011;68331;53.362;55.932;2023-07-31T03:13:48;7.18;;;4.70;;
78931;SDS011;68331;53.362;55.932;2023-07-31T03:16:14;4.43;;;4.03;;
78931;SDS011;68331;53.362;55.932;2023-07-31T03:18:40;5.28;;;3.80;;
78931;SDS011;68331;53.362;55.932;2023-07-31T03:23:33;9.52;;;3.88;;
78931;SDS011;68331;53.362;55.932;2023-07-31T03:25:59;8.32;;;4.20;;
78931;SDS011;68331;53.362;55.932;2023-07-31T03:28:29;4.75;;;4.30;;
78931;SDS011;68331;53.362;55.932;2023-07-31T03:30:55;6.25;;;4.28;;
78931;SDS011;68331;53.362;55.932;2023-07-31T03:33:22;10.52;;;5.60;;
78931;SDS011;68331;53.362;55.932;2023-07-31T03:35:50;12.80;;;5.88;;
78931;SDS011;68331;53.362;55.932;2023-07-31T03:38:17;9.90;;;5.45;;
78931;SDS011;68331;53.362;55.932;2023-07-31T03:40:43;11.68;;;4.78;;
78931;SDS011;68331;53.362;55.932;2023-07-31T03:43:10;10.63;;;4.95;;
78931;SDS011;68331;53.362;55.932;2023-07-31T03:45:38;6.13;;;4.53;;
78931;SDS011;68331;53.362;55.932;2023-07-31T03:48:04;5.18;;;4.18;;
78931;SDS011;68331;53.362;55.932;2023-07-31T03:50:31;7.70;;;4.60;;
78931;SDS011;68331;53.362;55.932;2023-07-31T03:52:57;5.88;;;4.18;;
78931;SDS011;68331;53.362;55.932;2023-07-31T03:55:23;7.20;;;3.90;;
78931;SDS011;68331;53.362;55.932;2023-07-31T03:57:49;5.57;;;3.88;;
78931;SDS011;68331;53.362;55.932;2023-07-31T04:00:15;3.80;;;3.40;;
78931;SDS011;68331;53.362;55.932;2023-07-31T04:02:41;10.93;;;4.70;;
78931;SDS011;68331;53.362;55.932;2023-07-31T04:05:07;7.45;;;3.22;;
78931;SDS011;68331;53.362;55.932;2023-07-31T04:07:34;5.68;;;4.03;;
78931;SDS011;68331;53.362;55.932;2023-07-31T04:09:59;7.38;;;3.90;;
78931;SDS011;68331;53.362;55.932;2023-07-31T04:12:26;5.30;;;3.67;;
78931;SDS011;68331;53.362;55.932;2023-07-31T04:14:52;6.40;;;3.30;;
78931;SDS011;68331;53.362;55.932;2023-07-31T04:17:18;4.65;;;3.10;;
78931;SDS011;68331;53.362;55.932;2023-07-31T04:19:44;5.50;;;3.38;;
78931;SDS011;68331;53.362;55.932;2023-07-31T04:22:10;7.28;;;3.45;;
78931;SDS011;68331;53.362;55.932;2023-07-31T04:24:36;6.78;;;4.57;;
78931;SDS011;68331;53.362;55.932;2023-07-31T04:27:02;6.35;;;4.35;;
78931;SDS011;68331;53.362;55.932;2023-07-31T04:29:28;5.65;;;4.32;;
78931;SDS011;68331;53.362;55.932;2023-07-31T04:31:54;6.30;;;5.70;;
78931;SDS011;68331;53.362;55.932;2023-07-31T04:34:20;8.27;;;5.72;;
78931;SDS011;68331;53.362;55.932;2023-07-31T04:36:46;4.00;;;3.60;;
78931;SDS011;68331;53.362;55.932;2023-07-31T04:39:12;6.03;;;3.10;;
78931;SDS011;68331;53.362;55.932;2023-07-31T04:41:38;4.53;;;3.67;;
78931;SDS011;68331;53.362;55.932;2023-07-31T04:44:04;5.28;;;3.35;;
78931;SDS011;68331;53.362;55.932;2023-07-31T04:46:30;6.07;;;3.78;;
78931;SDS011;68331;53.362;55.932;2023-07-31T04:48:56;7.68;;;3.75;;
78931;SDS011;68331;53.362;55.932;2023-07-31T04:51:22;4.85;;;3.00;;
78931;SDS011;68331;53.362;55.932;2023-07-31T04:53:49;3.58;;;2.75;;
78931;SDS011;68331;53.362;55.932;2023-07-31T04:56:16;3.83;;;2.85;;
78931;SDS011;68331;53.362;55.932;2023-07-31T04:58:42;4.50;;;3.33;;
78931;SDS011;68331;53.362;55.932;2023-07-31T05:01:11;5.38;;;3.10;;
78931;SDS011;68331;53.362;55.932;2023-07-31T05:03:37;7.45;;;4.75;;
78931;SDS011;68331;53.362;55.932;2023-07-31T05:06:03;6.38;;;4.20;;
78931;SDS011;68331;53.362;55.932;2023-07-31T05:08:28;5.43;;;3.25;;
78931;SDS011;68331;53.362;55.932;2023-07-31T05:10:55;4.63;;;2.80;;
78931;SDS011;68331;53.362;55.932;2023-07-31T05:13:20;4.13;;;2.90;;
78931;SDS011;68331;53.362;55.932;2023-07-31T05:15:46;8.65;;;3.10;;
78931;SDS011;68331;53.362;55.932;2023-07-31T05:18:15;5.00;;;2.97;;
78931;SDS011;68331;53.362;55.932;2023-07-31T05:20:41;4.35;;;2.50;;
78931;SDS011;68331;53.362;55.932;2023-07-31T05:23:07;3.45;;;2.17;;
78931;SDS011;68331;53.362;55.932;2023-07-31T05:25:33;3.63;;;2.63;;
78931;SDS011;68331;53.362;55.932;2023-07-31T05:27:59;6.22;;;2.65;;
78931;SDS011;68331;53.362;55.932;2023-07-31T05:30:25;6.10;;;2.40;;
78931;SDS011;68331;53.362;55.932;2023-07-31T05:32:52;3.20;;;2.35;;
78931;SDS011;68331;53.362;55.932;2023-07-31T05:35:18;6.82;;;2.42;;
78931;SDS011;68331;53.362;55.932;2023-07-31T05:37:44;6.00;;;2.60;;
78931;SDS011;68331;53.362;55.932;2023-07-31T05:40:10;5.00;;;1.80;;
78931;SDS011;68331;53.362;55.932;2023-07-31T05:42:36;3.90;;;2.15;;
78931;SDS011;68331;53.362;55.932;2023-07-31T05:45:05;5.03;;;1.98;;
78931;SDS011;68331;53.362;55.932;2023-07-31T05:47:32;6.10;;;2.40;;
78931;SDS011;68331;53.362;55.932;2023-07-31T05:49:58;1.83;;;1.67;;
78931;SDS011;68331;53.362;55.932;2023-07-31T05:52:25;2.30;;;2.10;;
78931;SDS011;68331;53.362;55.932;2023-07-31T05:54:51;3.15;;;2.13;;
78931;SDS011;68331;53.362;55.932;2023-07-31T05:57:17;3.40;;;2.10;;
78931;SDS011;68331;53.362;55.932;2023-07-31T05:59:43;7.57;;;2.55;;
78931;SDS011;68331;53.362;55.932;2023-07-31T06:02:09;2.40;;;1.88;;
78931;SDS011;68331;53.362;55.932;2023-07-31T06:04:35;2.45;;;1.92;;
78931;SDS011;68331;53.362;55.932;2023-07-31T06:07:01;4.10;;;1.70;;
78931;SDS011;68331;53.362;55.932;2023-07-31T06:09:27;3.33;;;1.30;;
78931;SDS011;68331;53.362;55.932;2023-07-31T06:11:53;3.80;;;1.75;;
78931;SDS011;68331;53.362;55.932;2023-07-31T06:14:19;3.65;;;1.67;;
78931;SDS011;68331;53.362;55.932;2023-07-31T06:16:45;3.75;;;2.13;;
78931;SDS011;68331;53.362;55.932;2023-07-31T06:19:11;3.70;;;1.52;;
78931;SDS011;68331;53.362;55.932;2023-07-31T06:21:37;3.47;;;1.60;;
78931;SDS011;68331;53.362;55.932;2023-07-31T06:24:04;3.13;;;1.40;;
78931;SDS011;68331;53.362;55.932;2023-07-31T06:26:31;1.83;;;1.35;;
78931;SDS011;68331;53.362;55.932;2023-07-31T06:28:57;3.05;;;1.45;;
78931;SDS011;68331;53.362;55.932;2023-07-31T06:33:50;2.88;;;1.20;;
78931;SDS011;68331;53.362;55.932;2023-07-31T06:36:16;2.28;;;1.23;;
78931;SDS011;68331;53.362;55.932;2023-07-31T06:38:42;3.03;;;1.13;;
78931;SDS011;68331;53.362;55.932;2023-07-31T06:41:08;1.63;;;1.20;;
78931;SDS011;68331;53.362;55.932;2023-07-31T06:43:36;4.82;;;1.63;;
78931;SDS011;68331;53.362;55.932;2023-07-31T06:46:06;4.70;;;1.60;;
78931;SDS011;68331;53.362;55.932;2023-07-31T06:48:33;5.97;;;1.20;;
78931;SDS011;68331;53.362;55.932;2023-07-31T06:51:00;3.28;;;1.48;;
78931;SDS011;68331;53.362;55.932;2023-07-31T06:53:27;2.63;;;1.05;;
78931;SDS011;68331;53.362;55.932;2023-07-31T06:55:54;2.55;;;1.50;;
78931;SDS011;68331;53.362;55.932;2023-07-31T06:58:20;2.08;;;1.20;;
78931;SDS011;68331;53.362;55.932;2023-07-31T07:00:46;4.40;;;2.05;;
78931;SDS011;68331;53.362;55.932;2023-07-31T07:03:16;3.38;;;1.40;;
78931;SDS011;68331;53.362;55.932;2023-07-31T07:05:44;3.25;;;1.90;;
78931;SDS011;68331;53.362;55.932;2023-07-31T07:08:10;1.65;;;1.17;;
78931;SDS011;68331;53.362;55.932;2023-07-31T07:10:36;2.97;;;1.38;;
78931;SDS011;68331;53.362;55.932;2023-07-31T07:13:02;4.55;;;1.20;;
78931;SDS011;68331;53.362;55.932;2023-07-31T07:15:28;7.32;;;1.23;;
78931;SDS011;68331;53.362;55.932;2023-07-31T07:17:54;2.38;;;1.65;;
78931;SDS011;68331;53.362;55.932;2023-07-31T07:22:46;2.80;;;1.30;;
78931;SDS011;68331;53.362;55.932;2023-07-31T07:25:12;1.92;;;1.50;;
78931;SDS011;68331;53.362;55.932;2023-07-31T07:27:39;2.00;;;1.13;;
78931;SDS011;68331;53.362;55.932;2023-07-31T07:30:05;1.90;;;1.08;;
78931;SDS011;68331;53.362;55.932;2023-07-31T07:32:31;1.50;;;1.20;;
78931;SDS011;68331;53.362;55.932;2023-07-31T07:34:57;3.78;;;1.40;;
78931;SDS011;68331;53.362;55.932;2023-07-31T07:37:23;4.10;;;1.20;;
78931;SDS011;68331;53.362;55.932;2023-07-31T07:39:49;3.13;;;1.05;;
78931;SDS011;68331;53.362;55.932;2023-07-31T07:42:15;3.95;;;1.80;;
78931;SDS011;68331;53.362;55.932;2023-07-31T07:44:41;2.78;;;1.77;;
78931;SDS011;68331;53.362;55.932;2023-07-31T07:47:07;2.78;;;1.40;;
78931;SDS011;68331;53.362;55.932;2023-07-31T07:49:34;2.20;;;1.00;;
78931;SDS011;68331;53.362;55.932;2023-07-31T07:52:00;4.20;;;1.25;;
78931;SDS011;68331;53.362;55.932;2023-07-31T07:54:27;6.80;;;1.50;;
78931;SDS011;68331;53.362;55.932;2023-07-31T07:56:53;2.95;;;1.58;;
78931;SDS011;68331;53.362;55.932;2023-07-31T07:59:19;2.70;;;1.65;;
78931;SDS011;68331;53.362;55.932;2023-07-31T08:04:11;2.97;;;1.90;;
78931;SDS011;68331;53.362;55.932;2023-07-31T08:06:37;1.73;;;1.40;;
78931;SDS011;68331;53.362;55.932;2023-07-31T08:09:03;3.33;;;1.85;;
78931;SDS011;68331;53.362;55.932;2023-07-31T08:11:32;4.10;;;1.40;;
78931;SDS011;68331;53.362;55.932;2023-07-31T08:16:24;2.85;;;1.63;;
78931;SDS011;68331;53.362;55.932;2023-07-31T08:18:50;3.90;;;2.05;;
78931;SDS011;68331;53.362;55.932;2023-07-31T08:21:16;2.53;;;1.77;;
78931;SDS011;68331;53.362;55.932;2023-07-31T08:23:42;3.13;;;1.83;;
78931;SDS011;68331;53.362;55.932;2023-07-31T08:26:08;2.22;;;2.00;;
78931;SDS011;68331;53.362;55.932;2023-07-31T08:28:40;2.47;;;1.98;;
78931;SDS011;68331;53.362;55.932;2023-07-31T08:31:05;3.53;;;2.25;;
78931;SDS011;68331;53.362;55.932;2023-07-31T08:33:32;3.35;;;2.50;;
78931;SDS011;68331;53.362;55.932;2023-07-31T08:35:58;3.92;;;2.03;;
78931;SDS011;68331;53.362;55.932;2023-07-31T08:38:25;5.05;;;2.70;;
78931;SDS011;68331;53.362;55.932;2023-07-31T08:40:51;3.45;;;1.75;;
78931;SDS011;68331;53.362;55.932;2023-07-31T08:43:18;3.13;;;1.95;;
78931;SDS011;68331;53.362;55.932;2023-07-31T08:45:45;2.35;;;1.90;;
78931;SDS011;68331;53.362;55.932;2023-07-31T08:48:15;3.15;;;2.13;;
78931;SDS011;68331;53.362;55.932;2023-07-31T08:50:42;3.00;;;2.17;;
78931;SDS011;68331;53.362;55.932;2023-07-31T08:53:08;2.60;;;2.10;;
78931;SDS011;68331;53.362;55.932;2023-07-31T08:55:35;3.83;;;2.50;;
78931;SDS011;68331;53.362;55.932;2023-07-31T08:58:02;5.18;;;2.50;;
78931;SDS011;68331;53.362;55.932;2023-07-31T09:00:29;2.70;;;2.33;;
78931;SDS011;68331;53.362;55.932;2023-07-31T09:05:23;2.85;;;2.47;;
78931;SDS011;68331;53.362;55.932;2023-07-31T09:07:52;3.17;;;2.85;;
78931;SDS011;68331;53.362;55.932;2023-07-31T09:10:20;3.47;;;2.40;;
78931;SDS011;68331;53.362;55.932;2023-07-31T09:12:46;7.25;;;2.92;;
78931;SDS011;68331;53.362;55.932;2023-07-31T09:15:14;3.20;;;2.50;;
78931;SDS011;68331;53.362;55.932;2023-07-31T09:17:40;3.22;;;2.58;;
78931;SDS011;68331;53.362;55.932;2023-07-31T09:20:19;4.07;;;2.65;;
78931;SDS011;68331;53.362;55.932;2023-07-31T09:22:48;5.30;;;2.63;;
78931;SDS011;68331;53.362;55.932;2023-07-31T09:27:49;4.43;;;3.00;;
78931;SDS011;68331;53.362;55.932;2023-07-31T09:30:21;3.60;;;2.40;;
78931;SDS011;68331;53.362;55.932;2023-07-31T09:32:48;5.38;;;3.55;;
78931;SDS011;68331;53.362;55.932;2023-07-31T09:37:52;5.47;;;2.38;;
78931;SDS011;68331;53.362;55.932;2023-07-31T09:40:26;3.92;;;2.30;;
78931;SDS011;68331;53.362;55.932;2023-07-31T09:42:57;4.88;;;2.70;;
78931;SDS011;68331;53.362;55.932;2023-07-31T09:45:25;4.68;;;2.22;;
78931;SDS011;68331;53.362;55.932;2023-07-31T09:47:51;2.22;;;1.95;;
78931;SDS011;68331;53.362;55.932;2023-07-31T09:52:45;4.32;;;2.13;;
78931;SDS011;68331;53.362;55.932;2023-07-31T09:55:11;2.72;;;1.83;;
78931;SDS011;68331;53.362;55.932;2023-07-31T09:57:41;2.38;;;2.17;;
78931;SDS011;68331;53.362;55.932;2023-07-31T10:00:10;2.88;;;2.15;;
78931;SDS011;68331;53.362;55.932;2023-07-31T10:02:39;2.58;;;2.28;;
78931;SDS011;68331;53.362;55.932;2023-07-31T10:05:05;2.45;;;2.10;;
78931;SDS011;68331;53.362;55.932;2023-07-31T10:07:36;2.80;;;2.22;;
78931;SDS011;68331;53.362;55.932;2023-07-31T10:10:07;4.65;;;2.47;;
78931;SDS011;68331;53.362;55.932;2023-07-31T10:12:34;3.97;;;2.70;;
78931;SDS011;68331;53.362;55.932;2023-07-31T10:15:02;3.28;;;2.15;;
78931;SDS011;68331;53.362;55.932;2023-07-31T10:17:32;4.63;;;2.20;;
78931;SDS011;68331;53.362;55.932;2023-07-31T10:20:01;2.83;;;2.50;;
78931;SDS011;68331;53.362;55.932;2023-07-31T10:22:31;4.93;;;2.70;;
78931;SDS011;68331;53.362;55.932;2023-07-31T10:25:00;5.28;;;3.28;;
78931;SDS011;68331;53.362;55.932;2023-07-31T10:27:30;7.70;;;3.50;;
78931;SDS011;68331;53.362;55.932;2023-07-31T10:32:22;3.85;;;2.70;;
78931;SDS011;68331;53.362;55.932;2023-07-31T10:34:51;7.15;;;3.42;;
78931;SDS011;68331;53.362;55.932;2023-07-31T10:37:30;3.38;;;2.90;;
78931;SDS011;68331;53.362;55.932;2023-07-31T10:40:03;3.22;;;2.92;;
78931;SDS011;68331;53.362;55.932;2023-07-31T10:42:46;8.10;;;3.78;;
78931;SDS011;68331;53.362;55.932;2023-07-31T10:45:39;4.05;;;3.40;;
78931;SDS011;68331;53.362;55.932;2023-07-31T10:48:15;4.95;;;3.22;;
78931;SDS011;68331;53.362;55.932;2023-07-31T10:50:51;5.43;;;3.30;;
78931;SDS011;68331;53.362;55.932;2023-07-31T10:53:24;3.92;;;3.45;;
78931;SDS011;68331;53.362;55.932;2023-07-31T10:55:59;3.78;;;3.47;;
78931;SDS011;68331;53.362;55.932;2023-07-31T10:58:26;3.95;;;3.13;;
78931;SDS011;68331;53.362;55.932;2023-07-31T11:00:55;4.45;;;3.60;;
78931;SDS011;68331;53.362;55.932;2023-07-31T11:03:25;4.28;;;3.80;;
78931;SDS011;68331;53.362;55.932;2023-07-31T11:13:33;3.97;;;3.67;;
78931;SDS011;68331;53.362;55.932;2023-07-31T11:16:05;4.00;;;3.63;;
78931;SDS011;68331;53.362;55.932;2023-07-31T11:18:31;3.58;;;3.28;;
78931;SDS011;68331;53.362;55.932;2023-07-31T11:20:57;4.43;;;3.83;;
78931;SDS011;68331;53.362;55.932;2023-07-31T11:23:23;4.38;;;3.53;;
78931;SDS011;68331;53.362;55.932;2023-07-31T11:25:49;4.25;;;3.85;;
78931;SDS011;68331;53.362;55.932;2023-07-31T11:28:17;3.72;;;3.42;;
78931;SDS011;68331;53.362;55.932;2023-07-31T11:30:44;4.25;;;3.85;;
78931;SDS011;68331;53.362;55.932;2023-07-31T11:33:13;3.95;;;3.65;;
78931;SDS011;68331;53.362;55.932;2023-07-31T11:35:46;5.00;;;4.03;;
78931;SDS011;68331;53.362;55.932;2023-07-31T11:38:25;3.75;;;3.45;;
78931;SDS011;68331;53.362;55.932;2023-07-31T11:40:56;4.60;;;3.55;;
78931;SDS011;68331;53.362;55.932;2023-07-31T11:43:23;5.80;;;4.15;;
78931;SDS011;68331;53.362;55.932;2023-07-31T11:45:51;4.25;;;3.85;;
78931;SDS011;68331;53.362;55.932;2023-07-31T11:48:26;4.88;;;4.47;;
78931;SDS011;68331;53.362;55.932;2023-07-31T11:50:59;3.92;;;3.53;;
78931;SDS011;68331;53.362;55.932;2023-07-31T11:53:28;3.83;;;3.47;;
78931;SDS011;68331;53.362;55.932;2023-07-31T11:55:59;4.13;;;3.70;;
78931;SDS011;68331;53.362;55.932;2023-07-31T11:58:26;4.20;;;3.80;;
78931;SDS011;68331;53.362;55.932;2023-07-31T12:00:54;5.28;;;3.70;;
78931;SDS011;68331;53.362;55.932;2023-07-31T12:03:22;4.07;;;3.78;;
78931;SDS011;68331;53.362;55.932;2023-07-31T12:05:48;6.07;;;3.97;;
78931;SDS011;68331;53.362;55.932;2023-07-31T12:08:14;5.95;;;4.43;;
78931;SDS011;68331;53.362;55.932;2023-07-31T12:10:41;5.35;;;4.05;;
78931;SDS011;68331;53.362;55.932;2023-07-31T12:13:08;4.63;;;4.05;;
78931;SDS011;68331;53.362;55.932;2023-07-31T12:15:40;7.93;;;4.28;;
78931;SDS011;68331;53.362;55.932;2023-07-31T12:18:11;4.38;;;3.70;;
78931;SDS011;68331;53.362;55.932;2023-07-31T12:20:45;4.00;;;3.70;;
78931;SDS011;68331;53.362;55.932;2023-07-31T12:23:22;4.20;;;3.55;;
78931;SDS011;68331;53.362;55.932;2023-07-31T12:28:44;5.32;;;3.80;;
78931;SDS011;68331;53.362;55.932;2023-07-31T12:31:16;5.57;;;4.35;;
78931;SDS011;68331;53.362;55.932;2023-07-31T12:33:48;6.97;;;3.90;;
78931;SDS011;68331;53.362;55.932;2023-07-31T12:36:16;4.30;;;3.90;;
78931;SDS011;68331;53.362;55.932;2023-07-31T12:38:45;5.82;;;3.60;;
78931;SDS011;68331;53.362;55.932;2023-07-31T12:41:11;4.97;;;3.75;;
78931;SDS011;68331;53.362;55.932;2023-07-31T12:43:39;4.20;;;3.30;;
78931;SDS011;68331;53.362;55.932;2023-07-31T12:46:06;4.05;;;3.67;;
78931;SDS011;68331;53.362;55.932;2023-07-31T12:48:36;6.00;;;3.88;;
78931;SDS011;68331;53.362;55.932;2023-07-31T12:51:03;4.88;;;4.00;;
78931;SDS011;68331;53.362;55.932;2023-07-31T12:53:30;6.43;;;3.78;;
78931;SDS011;68331;53.362;55.932;2023-07-31T12:55:56;4.85;;;3.90;;
78931;SDS011;68331;53.362;55.932;2023-07-31T13:00:48;6.55;;;3.58;;
78931;SDS011;68331;53.362;55.932;2023-07-31T13:03:14;4.68;;;3.72;;
78931;SDS011;68331;53.362;55.932;2023-07-31T13:05:40;7.10;;;3.90;;
78931;SDS011;68331;53.362;55.932;2023-07-31T13:08:06;4.07;;;3.67;;
78931;SDS011;68331;53.362;55.932;2023-07-31T13:10:32;4.28;;;3.83;;
78931;SDS011;68331;53.362;55.932;2023-07-31T13:12:58;4.45;;;3.63;;
78931;SDS011;68331;53.362;55.932;2023-07-31T13:15:24;4.18;;;3.88;;
78931;SDS011;68331;53.362;55.932;2023-07-31T13:17:51;5.10;;;3.60;;
78931;SDS011;68331;53.362;55.932;2023-07-31T13:20:17;4.63;;;3.33;;
78931;SDS011;68331;53.362;55.932;2023-07-31T13:22:42;4.03;;;3.25;;
78931;SDS011;68331;53.362;55.932;2023-07-31T13:25:08;4.57;;;3.70;;
78931;SDS011;68331;53.362;55.932;2023-07-31T13:27:35;3.05;;;2.85;;
78931;SDS011;68331;53.362;55.932;2023-07-31T13:32:29;7.57;;;2.60;;
78931;SDS011;68331;53.362;55.932;2023-07-31T13:34:55;6.60;;;3.38;;
78931;SDS011;68331;53.362;55.932;2023-07-31T13:37:29;3.28;;;2.70;;
78931;SDS011;68331;53.362;55.932;2023-07-31T13:39:55;3.50;;;2.72;;
78931;SDS011;68331;53.362;55.932;2023-07-31T13:42:21;4.50;;;2.70;;
78931;SDS011;68331;53.362;55.932;2023-07-31T13:44:48;4.55;;;3.30;;
78931;SDS011;68331;53.362;55.932;2023-07-31T13:47:13;3.92;;;2.97;;
78931;SDS011;68331;53.362;55.932;2023-07-31T13:49:40;3.05;;;2.50;;
78931;SDS011;68331;53.362;55.932;2023-07-31T13:52:08;2.65;;;2.45;;
78931;SDS011;68331;53.362;55.932;2023-07-31T13:54:34;3.97;;;2.47;;
78931;SDS011;68331;53.362;55.932;2023-07-31T13:57:00;3.63;;;2.60;;
78931;SDS011;68331;53.362;55.932;2023-07-31T13:59:29;3.38;;;2.03;;
78931;SDS011;68331;53.362;55.932;2023-07-31T14:01:55;3.42;;;2.22;;
78931;SDS011;68331;53.362;55.932;2023-07-31T14:04:21;4.82;;;2.10;;
78931;SDS011;68331;53.362;55.932;2023-07-31T14:06:47;5.03;;;2.20;;
78931;SDS011;68331;53.362;55.932;2023-07-31T14:09:15;3.42;;;2.53;;
78931;SDS011;68331;53.362;55.932;2023-07-31T14:11:43;3.75;;;1.88;;
78931;SDS011;68331;53.362;55.932;2023-07-31T14:14:09;4.15;;;2.00;;
78931;SDS011;68331;53.362;55.932;2023-07-31T14:16:35;4.13;;;2.70;;
78931;SDS011;68331;53.362;55.932;2023-07-31T14:19:01;6.88;;;2.50;;
78931;SDS011;68331;53.362;55.932;2023-07-31T14:21:27;2.47;;;1.92;;
78931;SDS011;68331;53.362;55.932;2023-07-31T14:23:54;4.20;;;2.25;;
78931;SDS011;68331;53.362;55.932;2023-07-31T14:26:20;4.65;;;2.30;;
78931;SDS011;68331;53.362;55.932;2023-07-31T14:28:46;4.35;;;2.13;;
78931;SDS011;68331;53.362;55.932;2023-07-31T14:31:12;5.00;;;1.83;;
78931;SDS011;68331;53.362;55.932;2023-07-31T14:33:38;2.90;;;1.92;;
78931;SDS011;68331;53.362;55.932;2023-07-31T14:36:04;4.07;;;2.30;;
78931;SDS011;68331;53.362;55.932;2023-07-31T14:38:30;2.45;;;2.08;;
78931;SDS011;68331;53.362;55.932;2023-07-31T14:40:56;3.70;;;2.58;;
78931;SDS011;68331;53.362;55.932;2023-07-31T14:43:22;3.90;;;2.65;;
78931;SDS011;68331;53.362;55.932;2023-07-31T14:45:49;3.08;;;2.17;;
78931;SDS011;68331;53.362;55.932;2023-07-31T14:48:15;3.53;;;2.10;;
78931;SDS011;68331;53.362;55.932;2023-07-31T14:50:41;3.33;;;1.85;;
78931;SDS011;68331;53.362;55.932;2023-07-31T14:53:08;5.57;;;1.50;;
78931;SDS011;68331;53.362;55.932;2023-07-31T14:55:34;2.60;;;1.98;;
78931;SDS011;68331;53.362;55.932;2023-07-31T14:58:00;5.18;;;1.80;;
78931;SDS011;68331;53.362;55.932;2023-07-31T15:00:29;3.45;;;2.00;;
78931;SDS011;68331;53.362;55.932;2023-07-31T15:02:55;3.45;;;2.20;;
78931;SDS011;68331;53.362;55.932;2023-07-31T15:05:21;2.42;;;1.63;;
78931;SDS011;68331;53.362;55.932;2023-07-31T15:07:48;3.05;;;2.00;;
78931;SDS011;68331;53.362;55.932;2023-07-31T15:10:14;4.35;;;1.98;;
78931;SDS011;68331;53.362;55.932;2023-07-31T15:12:41;2.92;;;1.45;;
78931;SDS011;68331;53.362;55.932;2023-07-31T15:15:08;7.55;;;2.03;;
78931;SDS011;68331;53.362;55.932;2023-07-31T15:17:34;3.22;;;2.15;;
78931;SDS011;68331;53.362;55.932;2023-07-31T15:20:01;2.90;;;2.47;;
78931;SDS011;68331;53.362;55.932;2023-07-31T15:22:29;5.00;;;2.47;;